Time;durP1;ratioP1;P1;durP2;ratioP2;P2;SDS_P1;SDS_P2;PMS_P1;PMS_P2;Temp;Humidity;BMP_temperature;BMP_pressure;BME280_temperature;BME280_humidity;BME280_pressure;Samples;Min_cycle;Max_cycle;Signal;HPM_P1;HPM_P2
2024/03/01 00:01:16;;;;;;;24.88;14.52;;;;;;;12.85;67.22;99046.25;4933870;29;20032;-74
2024/03/01 00:03:41;;;;;;;24.70;15.27;;;;;;;12.83;67.25;99043.78;4933887;29;20424;-73
2024/03/01 00:06:07;;;;;;;23.05;14.75;;;;;;;12.85;67.06;99054.94;4933594;29;20035;-73
2024/03/01 00:08:32;;;;;;;23.95;15.25;;;;;;;12.80;67.15;99044.00;4933846;29;20039;-74
2024/03/01 00:10:58;;;;;;;23.27;14.50;;;;;;;12.82;67.39;99044.75;4933947;29;20467;-75
2024/03/01 00:13:23;;;;;;;22.80;14.30;;;;;;;12.83;67.23;99045.56;4918394;29;20043;-74
2024/03/01 00:15:49;;;;;;;24.23;14.63;;;;;;;12.79;67.10;99034.50;4949773;28;20036;-71
2024/03/01 00:18:14;;;;;;;21.25;13.93;;;;;;;12.79;67.39;99044.13;4949664;29;20024;-72
2024/03/01 00:20:40;;;;;;;23.65;14.38;;;;;;;12.78;67.08;99055.59;4933963;29;20050;-74
2024/03/01 00:23:05;;;;;;;23.77;14.63;;;;;;;12.77;67.07;99048.69;4933921;29;20050;-74
2024/03/01 00:25:31;;;;;;;23.13;13.73;;;;;;;12.80;67.11;99044.00;4917916;29;20042;-74
2024/03/01 00:27:56;;;;;;;23.58;14.25;;;;;;;12.79;67.01;99041.53;4933784;29;20504;-74
2024/03/01 00:30:22;;;;;;;23.35;13.77;;;;;;;12.77;66.93;99044.25;4933585;29;20042;-73
2024/03/01 00:32:47;;;;;;;24.67;14.60;;;;;;;12.80;67.17;99045.81;4934596;29;20078;-72
2024/03/01 00:35:13;;;;;;;23.50;14.02;;;;;;;12.81;67.18;99037.00;4933675;29;20036;-74
2024/03/01 00:37:38;;;;;;;23.02;13.57;;;;;;;12.78;67.12;99032.84;4933826;29;20140;-76
2024/03/01 00:40:04;;;;;;;23.13;14.25;;;;;;;12.75;66.96;99022.59;4941801;29;20035;-75
2024/03/01 00:42:30;;;;;;;21.38;13.45;;;;;;;12.76;66.98;99023.44;4936572;29;20035;-73
2024/03/01 00:44:55;;;;;;;24.20;14.23;;;;;;;12.73;66.79;99005.34;4952650;29;20054;-74
2024/03/01 00:47:21;;;;;;;20.95;13.05;;;;;;;12.76;67.14;99005.09;4936589;28;20055;-72
2024/03/01 00:49:48;;;;;;;22.63;13.75;;;;;;;12.76;66.71;98986.75;4936550;29;20027;-72
2024/03/01 00:52:13;;;;;;;21.73;13.52;;;;;;;12.76;66.95;98994.63;4952383;29;20035;-72
2024/03/01 00:54:39;;;;;;;23.48;13.48;;;;;;;12.75;66.93;98983.31;4936815;29;20082;-72
2024/03/01 00:57:04;;;;;;;22.52;14.65;;;;;;;12.75;66.76;98985.94;4952318;29;20063;-72
2024/03/01 00:59:30;;;;;;;22.63;13.43;;;;;;;12.74;66.81;98984.25;4952883;29;20502;-72
2024/03/01 01:01:55;;;;;;;23.60;13.45;;;;;;;12.74;66.80;98979.03;4952596;28;20151;-72
2024/03/01 01:04:21;;;;;;;23.50;14.07;;;;;;;12.74;66.97;98949.38;4953173;28;20031;-72
2024/03/01 01:06:46;;;;;;;20.08;13.40;;;;;;;12.73;66.67;98943.31;4972141;28;20035;-72
2024/03/01 01:09:12;;;;;;;20.42;13.05;;;;;;;12.68;67.19;98958.56;4955815;29;20035;-72
2024/03/01 01:11:37;;;;;;;21.05;12.95;;;;;;;12.72;66.80;98948.69;4972033;28;20542;-72
2024/03/01 01:14:03;;;;;;;23.58;14.10;;;;;;;12.68;67.15;98935.00;4955833;29;20035;-76
2024/03/01 01:16:28;;;;;;;23.17;13.95;;;;;;;12.64;66.97;98938.84;4955874;29;20515;-75
2024/03/01 01:18:54;;;;;;;25.05;13.98;;;;;;;12.66;66.59;98929.88;4955691;29;20403;-74
2024/03/01 01:21:19;;;;;;;20.33;13.68;;;;;;;12.65;66.74;98924.75;4956109;29;20039;-74
2024/03/01 01:23:45;;;;;;;23.20;14.10;;;;;;;12.59;66.66;98905.16;4955436;29;20415;-74
2024/03/01 01:26:10;;;;;;;24.65;15.00;;;;;;;12.60;66.71;98901.59;4955867;29;20123;-75
2024/03/01 01:28:36;;;;;;;24.00;14.18;;;;;;;12.56;66.76;98881.84;4955483;29;20130;-74
2024/03/01 01:31:01;;;;;;;31.23;14.50;;;;;;;12.57;66.55;98895.75;4956726;29;20035;-77
2024/03/01 01:33:27;;;;;;;25.52;15.40;;;;;;;12.56;66.71;98910.66;4955350;29;20139;-77
2024/03/01 01:35:52;;;;;;;22.55;13.63;;;;;;;12.54;66.71;98912.56;4971967;28;20424;-77
2024/03/01 01:38:18;;;;;;;22.90;13.95;;;;;;;12.50;66.71;98919.00;4954879;29;20047;-78
2024/03/01 01:40:45;;;;;;;23.27;14.00;;;;;;;12.53;66.47;98907.47;4939112;29;20039;-77
2024/03/01 01:43:11;;;;;;;22.08;14.05;;;;;;;12.51;66.26;98918.06;4939162;29;20027;-77
2024/03/01 01:45:36;;;;;;;26.67;15.18;;;;;;;12.49;66.66;98889.38;4938979;29;20118;-77
2024/03/01 01:48:02;;;;;;;22.65;14.32;;;;;;;12.49;66.41;98878.06;4938779;29;20126;-77
2024/03/01 01:50:28;;;;;;;22.40;13.57;;;;;;;12.49;66.52;98873.66;4954994;29;20026;-75
2024/03/01 01:52:54;;;;;;;19.45;13.00;;;;;;;12.46;66.46;98883.53;4938809;29;20468;-77
2024/03/01 01:55:19;;;;;;;22.13;13.82;;;;;;;12.50;66.46;98905.91;4954857;29;20502;-78
2024/03/01 01:57:45;;;;;;;21.80;14.05;;;;;;;12.44;66.34;98883.66;4938891;29;20070;-75
2024/03/01 02:00:11;;;;;;;23.38;14.05;;;;;;;12.47;66.47;98886.03;4955045;28;20094;-75
2024/03/01 02:02:37;;;;;;;23.88;14.68;;;;;;;12.46;66.17;98894.00;4938761;29;20087;-74
2024/03/01 02:05:03;;;;;;;24.35;14.25;;;;;;;12.45;66.34;98902.84;4954911;29;20086;-74
2024/03/01 02:07:28;;;;;;;24.70;14.75;;;;;;;12.43;66.39;98899.50;4923347;29;20414;-77
2024/03/01 02:09:54;;;;;;;22.63;13.82;;;;;;;12.42;65.98;98884.78;4938404;29;20027;-77
2024/03/01 02:12:21;;;;;;;24.17;15.15;;;;;;;12.36;66.22;98883.47;4938606;29;20035;-76
2024/03/01 02:14:47;;;;;;;23.13;14.95;;;;;;;12.39;65.90;98885.00;4939019;29;20066;-76
2024/03/01 02:17:12;;;;;;;22.67;14.68;;;;;;;12.34;66.25;98882.78;4954878;28;20067;-76
2024/03/01 02:19:38;;;;;;;26.70;15.45;;;;;;;12.36;66.09;98888.69;4923275;29;20479;-77
2024/03/01 02:22:08;;;;;;;24.52;16.00;;;;;;;12.30;66.28;98889.19;4938513;29;20035;-75
2024/03/01 02:24:34;;;;;;;23.77;15.18;;;;;;;12.28;66.29;98893.75;4954324;29;20510;-75
2024/03/01 02:26:59;;;;;;;24.75;15.45;;;;;;;12.30;66.21;98904.91;4922522;29;20055;-76
2024/03/01 02:29:25;;;;;;;24.23;15.98;;;;;;;12.26;66.34;98895.66;4954415;29;20106;-76
2024/03/01 02:31:50;;;;;;;25.45;16.25;;;;;;;12.27;66.29;98911.25;4938130;29;20117;-76
2024/03/01 02:34:16;;;;;;;27.60;16.85;;;;;;;12.24;66.06;98900.16;4938012;28;20031;-75
2024/03/01 02:36:42;;;;;;;25.98;16.45;;;;;;;12.23;65.87;98896.72;4922294;29;20065;-75
2024/03/01 02:39:16;;;;;;;25.83;16.08;;;;;;;12.17;65.85;98896.38;4954144;28;20030;-75
2024/03/01 02:41:45;;;;;;;27.70;16.92;;;;;;;12.16;66.11;98905.19;4939191;29;20082;-75
2024/03/01 02:44:11;;;;;;;28.25;17.30;;;;;;;12.15;66.47;98906.16;4922237;29;20507;-75
2024/03/01 02:46:36;;;;;;;24.98;16.42;;;;;;;12.17;66.21;98910.28;4937842;29;20039;-74
2024/03/01 02:49:03;;;;;;;26.92;16.65;;;;;;;12.13;66.36;98909.72;4938306;29;20031;-74
2024/03/01 02:51:28;;;;;;;28.63;16.58;;;;;;;12.17;66.44;98912.91;4938424;29;20031;-74
2024/03/01 02:53:54;;;;;;;26.08;16.20;;;;;;;12.16;66.22;98919.13;4953865;29;20035;-74
2024/03/01 02:56:20;;;;;;;27.38;16.17;;;;;;;12.15;66.22;98914.84;4937838;29;20127;-74
2024/03/01 02:58:45;;;;;;;27.13;15.82;;;;;;;12.09;66.40;98908.28;4937750;29;20502;-74
2024/03/01 03:01:10;;;;;;;24.95;16.10;;;;;;;12.10;66.66;98903.91;4937495;29;20027;-74
2024/03/01 03:03:36;;;;;;;27.35;16.48;;;;;;;12.12;66.66;98902.00;4922164;29;20031;-73
2024/03/01 03:06:02;;;;;;;27.20;16.70;;;;;;;12.13;66.71;98887.97;4953593;29;20038;-74
2024/03/01 03:08:27;;;;;;;28.88;16.98;;;;;;;12.11;66.42;98888.09;4953255;29;20050;-74
2024/03/01 03:10:52;;;;;;;28.10;16.73;;;;;;;12.07;66.31;98888.44;4921644;29;20119;-75
2024/03/01 03:13:18;;;;;;;25.55;15.95;;;;;;;12.05;66.41;98887.72;4937520;29;20087;-75
2024/03/01 03:15:44;;;;;;;27.90;16.02;;;;;;;12.06;66.50;98881.53;4937269;29;20098;-75
2024/03/01 03:18:10;;;;;;;29.80;17.85;;;;;;;12.06;66.67;98892.00;4937615;29;20062;-75
2024/03/01 03:20:36;;;;;;;30.98;16.55;;;;;;;12.05;66.72;98899.03;4937599;29;20467;-74
2024/03/01 03:23:02;;;;;;;27.13;16.00;;;;;;;12.04;66.52;98920.91;4937392;29;20035;-74
2024/03/01 03:25:30;;;;;;;28.85;16.85;;;;;;;12.00;66.59;98913.44;4954610;29;20030;-74
2024/03/01 03:27:56;;;;;;;25.13;16.02;;;;;;;12.02;66.48;98907.13;4920600;29;20563;-74
2024/03/01 03:30:22;;;;;;;29.05;17.08;;;;;;;12.01;66.40;98902.84;4953232;29;20043;-74
2024/03/01 03:32:48;;;;;;;28.00;16.73;;;;;;;12.02;66.58;98899.28;4954511;29;20030;-75
2024/03/01 03:35:13;;;;;;;29.10;16.98;;;;;;;12.01;66.39;98896.78;4952976;29;20039;-75
2024/03/01 03:37:39;;;;;;;30.92;16.95;;;;;;;12.00;66.47;98893.34;4953214;29;20035;-75
2024/03/01 03:40:14;;;;;;;27.35;16.65;;;;;;;11.95;66.55;98877.16;4936964;29;20038;-75
2024/03/01 03:42:42;;;;;;;29.48;17.27;;;;;;;11.98;66.31;98863.03;4967995;28;20031;-76
2024/03/01 03:45:08;;;;;;;32.67;17.23;;;;;;;11.92;66.16;98846.88;4953102;29;20035;-76
2024/03/01 03:47:35;;;;;;;29.27;17.23;;;;;;;11.96;66.28;98844.81;4953168;28;20066;-76
2024/03/01 03:50:02;;;;;;;28.15;16.58;;;;;;;11.90;66.23;98819.94;4953057;29;20035;-76
2024/03/01 03:52:28;;;;;;;26.77;16.20;;;;;;;11.94;66.35;98828.44;4952625;29;20118;-74
2024/03/01 03:54:53;;;;;;;27.58;15.82;;;;;;;11.87;66.31;98817.56;4968677;28;20028;-75
2024/03/01 03:57:18;;;;;;;29.48;16.60;;;;;;;11.91;66.51;98831.25;4968962;28;20434;-76
2024/03/01 03:59:45;;;;;;;27.88;15.52;;;;;;;11.85;66.37;98824.72;4953711;28;20042;-75
2024/03/01 04:02:12;;;;;;;28.00;16.50;;;;;;;11.81;66.59;98805.00;4936975;29;20031;-75
2024/03/01 04:04:38;;;;;;;27.52;16.08;;;;;;;11.86;66.27;98808.09;4952851;28;20028;-75
2024/03/01 04:07:03;;;;;;;27.00;16.10;;;;;;;11.88;66.73;98816.63;4952896;29;20042;-72
2024/03/01 04:09:29;;;;;;;27.58;17.00;;;;;;;11.86;66.32;98810.72;4952589;29;20046;-82
2024/03/01 04:11:55;;;;;;;29.95;16.50;;;;;;;11.90;66.17;98824.34;4952713;29;20443;-77
2024/03/01 04:14:21;;;;;;;29.98;17.45;;;;;;;11.84;66.16;98812.59;4952578;28;20043;-77
2024/03/01 04:16:46;;;;;;;28.30;16.02;;;;;;;11.86;66.48;98810.72;4953309;29;20035;-79
2024/03/01 04:19:11;;;;;;;27.90;16.10;;;;;;;11.85;66.08;98813.44;4953252;28;20051;-80
2024/03/01 04:21:37;;;;;;;25.75;14.45;;;;;;;11.88;68.43;98819.25;4953184;28;20047;-78
2024/03/01 04:24:07;;;;;;;30.60;10.20;;;;;;;12.32;79.05;98819.25;4954607;28;20035;-78
2024/03/01 04:26:34;;;;;;;26.15;9.45;;;;;;;12.88;84.15;98820.69;4952540;29;20027;-79
2024/03/01 04:28:59;;;;;;;23.02;10.20;;;;;;;12.88;81.29;98819.88;4968433;28;20507;-78
2024/03/01 04:31:24;;;;;;;29.50;11.77;;;;;;;12.86;76.52;98825.25;4952300;29;20071;-79
2024/03/01 04:33:51;;;;;;;22.55;12.52;;;;;;;12.74;74.06;98816.63;4953021;28;20039;-74
2024/03/01 04:36:16;;;;;;;20.67;9.93;;;;;;;12.83;77.84;98812.41;4936671;29;20074;-73
2024/03/01 04:38:42;;;;;;;26.95;11.48;;;;;;;12.89;77.41;98817.13;4953672;28;20411;-70
2024/03/01 04:41:15;;;;;;;22.50;11.65;;;;;;;12.79;73.84;98808.38;4972483;28;20031;-71
2024/03/01 04:43:40;;;;;;;21.27;12.18;;;;;;;12.65;72.87;98802.53;4956331;29;20043;-71
2024/03/01 04:46:06;;;;;;;30.88;13.15;;;;;;;12.61;72.28;98803.72;4956258;29;20352;-72
2024/03/01 04:48:31;;;;;;;26.77;13.23;;;;;;;12.50;72.17;98795.94;4956004;29;20062;-72
2024/03/01 04:50:57;;;;;;;26.30;14.15;;;;;;;12.55;74.19;98801.63;4972056;28;20034;-73
2024/03/01 04:53:22;;;;;;;22.58;11.45;;;;;;;12.74;80.94;98793.03;4957253;28;20479;-70
2024/03/01 04:55:48;;;;;;;25.50;11.63;;;;;;;12.84;79.90;98814.91;4940176;29;20035;-71
2024/03/01 04:58:13;;;;;;;30.58;12.75;;;;;;;12.74;75.67;98800.91;4939950;29;20061;-70
2024/03/01 05:00:38;;;;;;;25.30;13.05;;;;;;;12.71;73.86;98803.78;4939900;29;20059;-70
2024/03/01 05:03:06;;;;;;;26.23;13.23;;;;;;;12.62;73.65;98796.72;4971256;28;20098;-71
2024/03/01 05:05:32;;;;;;;24.60;12.68;;;;;;;12.60;73.16;98814.34;4969538;28;20031;-70
2024/03/01 05:07:58;;;;;;;20.67;12.82;;;;;;;12.64;75.24;98826.22;4954508;29;20085;-74
2024/03/01 05:10:23;;;;;;;24.45;13.52;;;;;;;12.64;75.04;98829.66;4972013;28;20035;-73
2024/03/01 05:12:49;;;;;;;25.63;13.40;;;;;;;12.62;76.45;98821.13;4939538;29;20039;-71
2024/03/01 05:15:15;;;;;;;24.85;13.57;;;;;;;12.62;74.90;98828.16;4956087;29;20054;-70
2024/03/01 05:17:42;;;;;;;25.60;13.45;;;;;;;12.48;74.12;98814.41;4955708;29;20028;-69
2024/03/01 05:20:11;;;;;;;26.92;13.23;;;;;;;12.41;73.72;98825.50;4955493;28;20423;-71
2024/03/01 05:22:37;;;;;;;33.00;13.13;;;;;;;12.48;78.21;98832.72;4941356;28;20483;-71
2024/03/01 05:25:15;;;;;;;26.10;13.05;;;;;;;12.58;79.02;98830.16;4942253;29;20095;-70
2024/03/01 05:27:42;;;;;;;32.17;13.85;;;;;;;12.61;75.88;98834.34;4941252;29;20038;-73
2024/03/01 05:30:08;;;;;;;33.30;13.48;;;;;;;12.52;74.90;98824.63;4955529;29;20066;-71
2024/03/01 05:32:34;;;;;;;20.70;11.48;;;;;;;12.42;74.44;98825.38;4955561;28;20388;-71
2024/03/01 05:35:00;;;;;;;27.73;13.32;;;;;;;12.41;75.88;98820.25;4954779;29;20098;-73
2024/03/01 05:37:25;;;;;;;29.00;13.98;;;;;;;12.40;74.79;98822.06;4955530;29;20089;-73
2024/03/01 05:39:50;;;;;;;24.60;13.30;;;;;;;12.36;75.73;98832.91;4955256;29;20054;-74
2024/03/01 05:42:16;;;;;;;32.35;16.35;;;;;;;12.31;72.61;98849.00;4939558;29;20411;-72
2024/03/01 05:44:42;;;;;;;29.42;15.98;;;;;;;12.20;71.85;98849.03;4939274;29;20038;-72
2024/03/01 05:47:08;;;;;;;31.70;15.73;;;;;;;12.14;71.40;98839.88;4971000;28;20463;-72
2024/03/01 05:49:33;;;;;;;32.25;16.65;;;;;;;12.07;71.55;98836.13;4955037;29;20047;-72
2024/03/01 05:51:59;;;;;;;36.63;15.68;;;;;;;12.08;76.29;98837.75;4955103;28;20038;-72
2024/03/01 05:54:24;;;;;;;31.25;16.15;;;;;;;12.07;73.47;98857.06;4971240;28;20097;-70
2024/03/01 05:56:50;;;;;;;35.60;14.95;;;;;;;12.46;83.18;98859.97;4971137;28;20487;-70
2024/03/01 05:59:15;;;;;;;31.00;15.18;;;;;;;12.45;78.07;98858.34;4956127;29;20487;-70
2024/03/01 06:01:41;;;;;;;33.03;15.35;;;;;;;12.39;74.26;98859.66;4955055;29;20039;-71
2024/03/01 06:04:10;;;;;;;27.38;15.93;;;;;;;12.30;72.62;98849.94;4949178;28;20051;-71
2024/03/01 06:06:35;;;;;;;30.25;16.08;;;;;;;12.28;73.18;98855.28;4921070;29;20078;-73
2024/03/01 06:09:01;;;;;;;29.58;16.58;;;;;;;12.23;72.17;98854.84;4948279;28;20523;-71
2024/03/01 06:11:27;;;;;;;30.73;16.85;;;;;;;12.16;71.18;98848.47;4952436;29;20031;-72
2024/03/01 06:13:52;;;;;;;32.97;17.33;;;;;;;12.12;70.79;98858.31;4953509;28;20023;-79
2024/03/01 06:16:18;;;;;;;29.55;16.92;;;;;;;12.06;70.71;98853.59;4934793;29;20066;-75
2024/03/01 06:18:44;;;;;;;31.10;15.80;;;;;;;12.03;70.37;98855.63;4968047;28;20106;-76
2024/03/01 06:21:09;;;;;;;29.60;16.48;;;;;;;11.94;70.41;98844.13;4952793;28;20047;-74
2024/03/01 06:23:35;;;;;;;29.40;16.52;;;;;;;11.88;70.04;98828.91;4952610;29;20058;-83
2024/03/01 06:26:00;;;;;;;28.77;16.05;;;;;;;11.90;70.03;98847.91;4936137;28;20055;-76
2024/03/01 06:28:25;;;;;;;31.15;15.40;;;;;;;11.87;69.61;98850.75;4936870;29;20111;-76
2024/03/01 06:30:51;;;;;;;27.70;15.45;;;;;;;11.83;69.52;98842.34;4968223;28;20659;-76
2024/03/01 06:33:16;;;;;;;26.52;15.05;;;;;;;11.80;69.06;98842.59;4937047;29;20035;-77
2024/03/01 06:35:42;;;;;;;25.92;14.77;;;;;;;11.76;69.25;98851.59;4952137;28;20079;-77
2024/03/01 06:38:08;;;;;;;25.67;14.23;;;;;;;11.70;68.49;98866.03;4953244;29;20031;-77
2024/03/01 06:40:34;;;;;;;27.38;14.80;;;;;;;11.73;68.51;98876.25;4935892;28;20507;-79
2024/03/01 06:42:59;;;;;;;26.40;14.00;;;;;;;11.67;68.25;98855.81;4951773;29;20043;-78
2024/03/01 06:45:25;;;;;;;24.48;13.43;;;;;;;11.70;68.57;98868.63;4952506;28;20507;-78
2024/03/01 06:47:50;;;;;;;33.63;15.40;;;;;;;11.77;73.00;98861.94;4951746;29;20051;-77
2024/03/01 06:50:16;;;;;;;27.50;13.80;;;;;;;11.85;73.62;98868.38;4952097;29;20114;-76
2024/03/01 06:52:41;;;;;;;33.63;14.73;;;;;;;11.88;71.88;98876.81;4951589;29;20073;-75
2024/03/01 06:55:08;;;;;;;26.20;13.90;;;;;;;11.83;70.66;98878.09;4936064;28;20031;-76
2024/03/01 06:57:33;;;;;;;30.63;15.18;;;;;;;11.86;69.99;98870.00;4951663;29;20456;-82
2024/03/01 06:59:59;;;;;;;25.92;15.60;;;;;;;11.81;69.28;98866.94;4935989;28;20078;-76
2024/03/01 07:02:24;;;;;;;28.73;15.48;;;;;;;11.81;69.18;98883.47;4951948;28;20074;-73
2024/03/01 07:04:50;;;;;;;28.08;15.20;;;;;;;11.83;68.84;98902.50;4935102;29;20043;-72
2024/03/01 07:07:18;;;;;;;28.88;15.63;;;;;;;11.83;68.86;98901.63;4951827;29;20507;-72
2024/03/01 07:09:44;;;;;;;25.55;15.52;;;;;;;11.76;68.67;98883.84;4951824;29;20031;-73
2024/03/01 07:12:09;;;;;;;25.27;14.73;;;;;;;11.79;68.31;98890.59;4935626;28;20039;-72
2024/03/01 07:14:35;;;;;;;26.17;14.77;;;;;;;11.77;68.18;98893.34;4951517;29;20039;-75
2024/03/01 07:17:01;;;;;;;25.25;15.20;;;;;;;11.78;68.11;98902.03;4951459;29;20044;-73
2024/03/01 07:19:26;;;;;;;28.23;16.85;;;;;;;11.77;68.14;98884.66;4959780;28;20114;-74
2024/03/01 07:21:53;;;;;;;29.45;17.55;;;;;;;11.76;67.80;98891.69;4932174;28;20519;-73
2024/03/01 07:24:19;;;;;;;31.38;17.15;;;;;;;11.75;67.85;98895.25;4964718;28;20102;-72
2024/03/01 07:26:44;;;;;;;31.27;17.60;;;;;;;11.68;67.44;98890.63;4915627;29;20031;-73
2024/03/01 07:29:10;;;;;;;32.60;17.25;;;;;;;11.76;69.50;98894.31;4948307;28;20471;-71
2024/03/01 07:31:35;;;;;;;32.08;17.23;;;;;;;11.73;69.10;98898.94;4965840;28;20126;-69
2024/03/01 07:34:01;;;;;;;29.95;16.60;;;;;;;11.71;69.20;98891.19;4971600;28;20041;-70
2024/03/01 07:36:26;;;;;;;29.02;17.10;;;;;;;11.67;68.59;98887.19;4973153;28;20043;-69
2024/03/01 07:38:52;;;;;;;35.85;18.70;;;;;;;11.65;68.29;98878.59;4972459;28;20038;-69
2024/03/01 07:41:21;;;;;;;34.33;18.58;;;;;;;11.58;68.50;98874.81;4971383;28;20046;-69
2024/03/01 07:43:49;;;;;;;32.35;19.27;;;;;;;11.60;67.91;98891.22;4986744;28;20031;-69
2024/03/01 07:46:15;;;;;;;35.50;20.33;;;;;;;11.58;68.01;98891.34;4988158;28;20035;-70
2024/03/01 07:48:44;;;;;;;37.72;20.88;;;;;;;11.57;67.91;98881.00;4971723;28;20070;-70
2024/03/01 07:51:10;;;;;;;37.92;21.15;;;;;;;11.56;68.03;98871.50;4971940;28;20038;-70
2024/03/01 07:53:35;;;;;;;40.63;21.65;;;;;;;11.59;67.91;98873.84;4971891;28;20418;-70
2024/03/01 07:56:01;;;;;;;40.25;22.65;;;;;;;11.63;68.15;98883.13;4972517;28;20038;-68
2024/03/01 07:58:27;;;;;;;35.63;20.60;;;;;;;11.62;67.98;98885.88;4988544;28;20042;-70
2024/03/01 08:00:52;;;;;;;38.40;21.90;;;;;;;11.67;67.73;98884.56;4972427;28;20499;-68
2024/03/01 08:03:18;;;;;;;38.20;22.65;;;;;;;11.67;67.44;98875.88;4971774;28;20047;-69
2024/03/01 08:05:44;;;;;;;36.00;21.58;;;;;;;11.73;67.57;98896.31;4972722;28;20038;-69
2024/03/01 08:08:10;;;;;;;40.63;22.75;;;;;;;11.74;67.42;98882.28;4972344;28;20035;-68
2024/03/01 08:10:43;;;;;;;37.92;22.80;;;;;;;11.74;66.98;98872.66;4988449;28;20051;-69
2024/03/01 08:13:09;;;;;;;38.60;22.20;;;;;;;11.80;66.91;98878.34;4972367;28;20117;-70
2024/03/01 08:15:37;;;;;;;39.47;22.60;;;;;;;11.83;66.77;98878.97;4961692;28;20034;-71
2024/03/01 08:18:21;;;;;;;44.22;22.40;;;;;;;11.88;66.71;98876.81;4978723;28;20121;-70
2024/03/01 08:21:05;;;;;;;38.00;22.00;;;;;;;11.91;66.09;98865.28;4980009;28;20022;-70
2024/03/01 08:23:38;;;;;;;41.20;21.55;;;;;;;11.95;66.09;98858.84;4978802;28;20057;-69
2024/03/01 08:26:04;;;;;;;37.63;22.45;;;;;;;12.02;65.61;98849.56;4978577;28;20505;-70
2024/03/01 08:28:31;;;;;;;37.65;22.00;;;;;;;12.03;65.37;98832.91;4978596;28;20100;-70
2024/03/01 08:30:56;;;;;;;37.22;20.60;;;;;;;12.19;64.84;98850.84;4994795;28;20030;-71
2024/03/01 08:33:22;;;;;;;35.78;21.65;;;;;;;12.29;64.46;98851.72;4978273;28;20050;-72
2024/03/01 08:35:47;;;;;;;34.80;21.08;;;;;;;12.30;64.90;98831.63;4978628;28;20038;-69
2024/03/01 08:38:41;;;;;;;39.47;21.80;;;;;;;12.39;64.50;98849.19;4978359;28;20031;-72
2024/03/01 08:41:08;;;;;;;36.10;20.75;;;;;;;12.42;64.37;98861.22;4979713;28;20154;-69
2024/03/01 08:43:37;;;;;;;35.60;20.65;;;;;;;12.42;64.14;98874.28;4979536;28;20069;-69
2024/03/01 08:46:03;;;;;;;36.67;21.08;;;;;;;12.41;63.50;98870.00;4962017;28;20046;-70
2024/03/01 08:48:32;;;;;;;37.05;21.27;;;;;;;12.41;63.48;98859.53;4961947;28;20157;-72
2024/03/01 08:50:58;;;;;;;38.08;21.10;;;;;;;12.48;63.73;98855.47;4979323;28;20034;-71
2024/03/01 08:53:42;;;;;;;35.25;20.48;;;;;;;12.53;63.26;98850.69;4978312;28;20411;-70
2024/03/01 08:56:13;;;;;;;35.42;21.10;;;;;;;12.55;63.28;98851.38;4978498;28;20141;-71
2024/03/01 08:58:39;;;;;;;25.38;12.63;;;;;;;12.74;71.63;98840.19;4939863;28;20062;-73
2024/03/01 09:01:04;;;;;;;18.48;10.13;;;;;;;13.54;78.22;98841.28;4956552;28;20043;-75
2024/03/01 09:03:30;;;;;;;17.38;9.75;;;;;;;14.11;76.54;98838.09;4943156;28;20055;-74
2024/03/01 09:06:00;;;;;;;17.83;9.75;;;;;;;14.58;73.95;98826.88;4969380;28;20047;-79
2024/03/01 09:08:35;;;;;;;16.83;10.10;;;;;;;14.83;71.83;98836.00;4942232;29;20039;-73
2024/03/01 09:11:02;;;;;;;17.52;9.38;;;;;;;15.23;70.80;98834.91;4945639;29;20043;-80
2024/03/01 09:13:28;;;;;;;21.10;11.52;;;;;;;15.26;67.49;98847.78;4940965;29;20527;-75
2024/03/01 09:15:55;;;;;;;17.75;11.27;;;;;;;14.99;63.71;98835.38;4941068;28;20538;-74
2024/03/01 09:18:44;;;;;;;19.60;11.43;;;;;;;14.67;63.27;98831.31;4956500;28;20047;-75
2024/03/01 09:21:36;;;;;;;18.40;11.95;;;;;;;14.45;63.07;98825.38;4957190;28;20059;-74
2024/03/01 09:24:02;;;;;;;25.30;13.40;;;;;;;14.28;62.54;98832.16;4980896;28;20426;-74
2024/03/01 09:26:28;;;;;;;23.88;13.13;;;;;;;14.15;61.69;98839.47;4958800;28;20041;-75
2024/03/01 09:28:58;;;;;;;19.77;12.57;;;;;;;14.03;61.10;98828.28;4974282;28;20034;-73
2024/03/01 09:31:24;;;;;;;21.60;12.88;;;;;;;13.94;60.52;98829.91;4974377;28;20493;-73
2024/03/01 09:33:49;;;;;;;21.73;13.20;;;;;;;13.92;59.85;98828.41;4958885;28;20046;-74
2024/03/01 09:36:19;;;;;;;31.35;14.35;;;;;;;13.84;60.28;98833.50;4974267;28;20097;-72
2024/03/01 09:38:47;;;;;;;33.22;15.20;;;;;;;13.83;62.59;98847.59;4948410;29;20039;-75
2024/03/01 09:41:19;;;;;;;22.33;10.18;;;;;;;14.82;72.35;98839.59;4955617;29;20163;-73
2024/03/01 09:43:57;;;;;;;18.85;9.00;;;;;;;15.50;68.76;98838.53;4971179;28;20035;-73
2024/03/01 09:46:58;;;;;;;16.95;8.63;;;;;;;16.03;65.79;98835.19;4970703;28;20038;-75
2024/03/01 09:49:51;;;;;;;17.98;9.32;;;;;;;16.59;63.25;98848.22;4954672;28;20142;-75
2024/03/01 09:52:35;;;;;;;17.95;8.63;;;;;;;16.88;61.77;98853.22;4954446;29;20035;-74
2024/03/01 09:55:07;;;;;;;15.73;8.30;;;;;;;17.01;60.61;98858.06;4954184;29;20130;-76
2024/03/01 09:57:59;;;;;;;16.48;10.02;;;;;;;16.74;57.70;98846.66;4922431;29;20078;-76
2024/03/01 10:00:28;;;;;;;17.10;10.73;;;;;;;16.43;56.50;98852.34;4939638;29;20581;-75
2024/03/01 10:03:03;;;;;;;13.55;8.90;;;;;;;16.41;61.14;98841.16;4938374;29;20073;-73
2024/03/01 10:05:59;;;;;;;17.77;10.75;;;;;;;16.15;57.87;98814.75;4954102;29;20091;-73
2024/03/01 10:08:33;;;;;;;19.58;10.80;;;;;;;15.83;57.42;98804.69;4939249;29;20050;-74
2024/03/01 10:11:12;;;;;;;16.40;9.55;;;;;;;15.87;62.12;98799.00;4937604;29;20043;-74
2024/03/01 10:14:06;;;;;;;20.58;10.63;;;;;;;15.66;59.57;98816.84;4954132;29;20109;-72
2024/03/01 10:16:55;;;;;;;11.93;7.93;;;;;;;16.04;63.27;98828.94;4937843;29;20023;-75
2024/03/01 10:19:29;;;;;;;19.08;8.63;;;;;;;16.43;61.94;98831.28;4953679;29;20130;-76
2024/03/01 10:22:00;;;;;;;13.15;7.82;;;;;;;16.66;60.92;98824.69;4937450;29;20043;-76
2024/03/01 10:25:14;;;;;;;15.15;7.80;;;;;;;16.95;59.71;98819.97;4953840;29;20083;-74
2024/03/01 10:27:47;;;;;;;12.57;8.23;;;;;;;17.09;59.21;98826.47;4897028;29;20505;-76
2024/03/01 10:30:16;;;;;;;12.27;8.43;;;;;;;17.03;58.56;98829.75;4896467;29;20135;-74
2024/03/01 10:33:19;;;;;;;11.65;7.60;;;;;;;17.06;59.30;98824.13;4880575;29;20045;-74
2024/03/01 10:36:00;;;;;;;11.23;7.43;;;;;;;17.17;58.55;98826.53;4896278;29;20490;-77
2024/03/01 10:38:25;;;;;;;13.43;8.50;;;;;;;16.95;56.83;98825.25;4880207;29;20044;-75
2024/03/01 10:40:53;;;;;;;18.42;10.70;;;;;;;16.62;55.63;98789.91;4896546;29;20045;-73
2024/03/01 10:43:34;;;;;;;16.55;10.48;;;;;;;16.28;56.96;98780.09;4896253;29;20029;-75
2024/03/01 10:46:06;;;;;;;15.18;9.43;;;;;;;16.31;58.90;98771.91;4880789;29;20425;-72
2024/03/01 10:48:43;;;;;;;17.65;10.20;;;;;;;16.00;57.82;98761.78;4896038;29;20052;-72
2024/03/01 10:51:09;;;;;;;15.90;10.48;;;;;;;15.83;58.24;98765.22;4880638;29;20048;-73
2024/03/01 10:53:36;;;;;;;17.08;10.57;;;;;;;15.66;58.30;98774.75;4880373;29;20040;-75
2024/03/01 10:56:04;;;;;;;17.25;9.90;;;;;;;16.07;65.83;98776.00;4896030;29;20036;-73
2024/03/01 10:58:34;;;;;;;22.13;10.13;;;;;;;16.17;64.71;98780.34;4922831;29;20071;-73
2024/03/01 11:01:09;;;;;;;15.95;10.70;;;;;;;16.20;65.39;98783.50;4953994;29;20058;-72
2024/03/01 11:03:46;;;;;;;26.73;11.38;;;;;;;16.27;66.59;98775.81;4953880;29;20035;-73
2024/03/01 11:06:37;;;;;;;18.25;11.43;;;;;;;16.36;67.38;98774.91;4937951;29;20027;-73
2024/03/01 11:09:31;;;;;;;21.70;10.27;;;;;;;16.42;67.18;98760.31;4955437;28;20027;-73
2024/03/01 11:12:38;;;;;;;19.98;11.43;;;;;;;16.49;67.67;98760.50;4991413;28;20045;-71
2024/03/01 11:15:09;;;;;;;19.25;10.95;;;;;;;16.40;64.98;98746.47;4936976;29;20142;-75
2024/03/01 11:17:35;;;;;;;18.77;11.30;;;;;;;16.23;62.37;98741.06;4936977;29;20035;-72
2024/03/01 11:20:10;;;;;;;21.00;12.15;;;;;;;16.07;60.67;98739.13;4936745;29;20058;-72
2024/03/01 11:22:37;;;;;;;17.58;11.57;;;;;;;15.95;59.74;98721.91;4937298;29;20054;-72